sensor_id;sensor_type;location;lat;lon;timestamp;temperature;humidity
12901;DHT22;6518;50.930;5.344;2023-04-25T00:00:44;9.20;82.00
12901;DHT22;6518;50.930;5.344;2023-04-25T00:03:11;9.10;82.00
12901;DHT22;6518;50.930;5.344;2023-04-25T00:05:39;9.20;82.90
12901;DHT22;6518;50.930;5.344;2023-04-25T00:08:07;9.10;81.90
12901;DHT22;6518;50.930;5.344;2023-04-25T00:10:35;9.10;82.20
12901;DHT22;6518;50.930;5.344;2023-04-25T00:13:02;9.10;82.50
12901;DHT22;6518;50.930;5.344;2023-04-25T00:15:29;9.10;82.50
12901;DHT22;6518;50.930;5.344;2023-04-25T00:17:56;9.20;82.60
12901;DHT22;6518;50.930;5.344;2023-04-25T00:20:23;9.20;82.40
12901;DHT22;6518;50.930;5.344;2023-04-25T00:22:50;9.10;82.50
12901;DHT22;6518;50.930;5.344;2023-04-25T00:25:19;9.10;82.70
12901;DHT22;6518;50.930;5.344;2023-04-25T00:27:46;9.10;82.80
12901;DHT22;6518;50.930;5.344;2023-04-25T00:30:14;9.10;82.70
12901;DHT22;6518;50.930;5.344;2023-04-25T00:32:41;10.50;83.50
12901;DHT22;6518;50.930;5.344;2023-04-25T00:35:09;9.20;82.70
12901;DHT22;6518;50.930;5.344;2023-04-25T00:37:36;9.20;82.90
12901;DHT22;6518;50.930;5.344;2023-04-25T00:40:05;9.20;83.00
12901;DHT22;6518;50.930;5.344;2023-04-25T00:42:35;9.10;83.00
12901;DHT22;6518;50.930;5.344;2023-04-25T00:45:05;9.10;83.20
12901;DHT22;6518;50.930;5.344;2023-04-25T00:47:33;9.00;83.70
12901;DHT22;6518;50.930;5.344;2023-04-25T00:50:02;8.90;84.10
12901;DHT22;6518;50.930;5.344;2023-04-25T00:52:29;8.90;84.50
12901;DHT22;6518;50.930;5.344;2023-04-25T00:54:56;8.90;84.60
12901;DHT22;6518;50.930;5.344;2023-04-25T00:57:23;8.80;84.90
12901;DHT22;6518;50.930;5.344;2023-04-25T00:59:53;8.80;85.20
12901;DHT22;6518;50.930;5.344;2023-04-25T01:02:20;8.80;85.30
12901;DHT22;6518;50.930;5.344;2023-04-25T01:04:48;8.80;85.40
12901;DHT22;6518;50.930;5.344;2023-04-25T01:07:15;8.80;85.40
12901;DHT22;6518;50.930;5.344;2023-04-25T01:09:42;8.80;85.60
12901;DHT22;6518;50.930;5.344;2023-04-25T01:12:09;8.70;86.00
12901;DHT22;6518;50.930;5.344;2023-04-25T01:14:36;8.60;86.30
12901;DHT22;6518;50.930;5.344;2023-04-25T01:17:04;8.60;86.50
12901;DHT22;6518;50.930;5.344;2023-04-25T01:19:33;8.60;86.60
12901;DHT22;6518;50.930;5.344;2023-04-25T01:22:01;8.60;86.60
12901;DHT22;6518;50.930;5.344;2023-04-25T01:24:29;8.70;87.50
12901;DHT22;6518;50.930;5.344;2023-04-25T01:26:56;8.70;86.60
12901;DHT22;6518;50.930;5.344;2023-04-25T01:29:24;8.80;86.50
12901;DHT22;6518;50.930;5.344;2023-04-25T01:31:51;8.80;86.70
12901;DHT22;6518;50.930;5.344;2023-04-25T01:34:19;8.70;87.50
12901;DHT22;6518;50.930;5.344;2023-04-25T01:36:48;8.70;86.90
12901;DHT22;6518;50.930;5.344;2023-04-25T01:39:17;8.80;87.10
12901;DHT22;6518;50.930;5.344;2023-04-25T01:41:45;8.70;87.00
12901;DHT22;6518;50.930;5.344;2023-04-25T01:44:12;8.70;87.30
12901;DHT22;6518;50.930;5.344;2023-04-25T01:46:39;8.70;87.00
12901;DHT22;6518;50.930;5.344;2023-04-25T01:49:06;8.60;87.30
12901;DHT22;6518;50.930;5.344;2023-04-25T01:51:33;8.60;87.60
12901;DHT22;6518;50.930;5.344;2023-04-25T01:54:01;8.60;88.00
12901;DHT22;6518;50.930;5.344;2023-04-25T01:56:32;8.60;88.00
12901;DHT22;6518;50.930;5.344;2023-04-25T01:58:59;8.60;88.20
12901;DHT22;6518;50.930;5.344;2023-04-25T02:01:26;8.70;88.00
12901;DHT22;6518;50.930;5.344;2023-04-25T02:03:53;8.70;88.00
12901;DHT22;6518;50.930;5.344;2023-04-25T02:06:20;8.70;88.00
12901;DHT22;6518;50.930;5.344;2023-04-25T02:08:47;8.70;87.90
12901;DHT22;6518;50.930;5.344;2023-04-25T02:11:14;8.70;88.80
12901;DHT22;6518;50.930;5.344;2023-04-25T02:13:43;8.70;88.00
12901;DHT22;6518;50.930;5.344;2023-04-25T02:16:10;8.70;89.00
12901;DHT22;6518;50.930;5.344;2023-04-25T02:18:37;8.70;88.30
12901;DHT22;6518;50.930;5.344;2023-04-25T02:21:04;8.70;88.50
12901;DHT22;6518;50.930;5.344;2023-04-25T02:23:31;8.70;88.70
12901;DHT22;6518;50.930;5.344;2023-04-25T02:25:58;8.70;88.80
12901;DHT22;6518;50.930;5.344;2023-04-25T02:28:25;8.70;88.90
12901;DHT22;6518;50.930;5.344;2023-04-25T02:30:54;8.60;90.00
12901;DHT22;6518;50.930;5.344;2023-04-25T02:33:21;8.60;89.60
12901;DHT22;6518;50.930;5.344;2023-04-25T02:35:48;8.60;90.20
12901;DHT22;6518;50.930;5.344;2023-04-25T02:38:15;8.60;90.00
12901;DHT22;6518;50.930;5.344;2023-04-25T02:40:42;8.50;90.10
12901;DHT22;6518;50.930;5.344;2023-04-25T02:43:09;8.50;90.30
12901;DHT22;6518;50.930;5.344;2023-04-25T02:45:36;8.40;90.40
12901;DHT22;6518;50.930;5.344;2023-04-25T02:48:05;8.50;90.50
12901;DHT22;6518;50.930;5.344;2023-04-25T02:50:32;8.50;90.60
12901;DHT22;6518;50.930;5.344;2023-04-25T02:52:59;8.50;91.00
12901;DHT22;6518;50.930;5.344;2023-04-25T02:55:26;8.60;90.60
12901;DHT22;6518;50.930;5.344;2023-04-25T02:57:53;8.60;90.70
12901;DHT22;6518;50.930;5.344;2023-04-25T03:00:21;8.50;90.80
12901;DHT22;6518;50.930;5.344;2023-04-25T03:02:48;8.50;90.90
12901;DHT22;6518;50.930;5.344;2023-04-25T03:05:18;8.50;91.00
12901;DHT22;6518;50.930;5.344;2023-04-25T03:07:44;8.40;91.10
12901;DHT22;6518;50.930;5.344;2023-04-25T03:10:12;8.50;91.10
12901;DHT22;6518;50.930;5.344;2023-04-25T03:12:38;8.50;91.20
12901;DHT22;6518;50.930;5.344;2023-04-25T03:15:06;8.50;91.40
12901;DHT22;6518;50.930;5.344;2023-04-25T03:17:33;8.40;91.30
12901;DHT22;6518;50.930;5.344;2023-04-25T03:20:00;8.40;91.50
12901;DHT22;6518;50.930;5.344;2023-04-25T03:22:31;8.40;91.70
12901;DHT22;6518;50.930;5.344;2023-04-25T03:24:58;8.40;92.00
12901;DHT22;6518;50.930;5.344;2023-04-25T03:27:25;8.30;92.00
12901;DHT22;6518;50.930;5.344;2023-04-25T03:29:52;8.30;92.30
12901;DHT22;6518;50.930;5.344;2023-04-25T03:32:19;8.30;92.60
12901;DHT22;6518;50.930;5.344;2023-04-25T03:34:46;8.20;92.70
12901;DHT22;6518;50.930;5.344;2023-04-25T03:37:13;8.20;93.00
12901;DHT22;6518;50.930;5.344;2023-04-25T03:39:41;8.30;93.10
12901;DHT22;6518;50.930;5.344;2023-04-25T03:42:08;8.20;93.10
12901;DHT22;6518;50.930;5.344;2023-04-25T03:44:35;8.20;93.10
12901;DHT22;6518;50.930;5.344;2023-04-25T03:47:02;8.20;93.40
12901;DHT22;6518;50.930;5.344;2023-04-25T03:49:29;8.30;93.70
12901;DHT22;6518;50.930;5.344;2023-04-25T03:51:56;8.30;94.00
12901;DHT22;6518;50.930;5.344;2023-04-25T03:54:23;8.30;94.00
12901;DHT22;6518;50.930;5.344;2023-04-25T03:56:51;8.30;94.20
12901;DHT22;6518;50.930;5.344;2023-04-25T03:59:18;8.30;94.40
12901;DHT22;6518;50.930;5.344;2023-04-25T04:01:45;8.30;94.40
12901;DHT22;6518;50.930;5.344;2023-04-25T04:04:12;8.20;94.50
12901;DHT22;6518;50.930;5.344;2023-04-25T04:06:39;8.20;94.90
12901;DHT22;6518;50.930;5.344;2023-04-25T04:09:06;8.20;95.20
12901;DHT22;6518;50.930;5.344;2023-04-25T04:11:36;8.10;95.10
12901;DHT22;6518;50.930;5.344;2023-04-25T04:14:05;8.00;95.30
12901;DHT22;6518;50.930;5.344;2023-04-25T04:16:33;8.00;95.80
12901;DHT22;6518;50.930;5.344;2023-04-25T04:18:59;8.00;96.00
12901;DHT22;6518;50.930;5.344;2023-04-25T04:21:26;7.90;96.00
12901;DHT22;6518;50.930;5.344;2023-04-25T04:23:53;7.90;96.20
12901;DHT22;6518;50.930;5.344;2023-04-25T04:26:21;7.80;96.00
12901;DHT22;6518;50.930;5.344;2023-04-25T04:28:50;7.80;95.10
12901;DHT22;6518;50.930;5.344;2023-04-25T04:31:18;7.70;95.00
12901;DHT22;6518;50.930;5.344;2023-04-25T04:33:45;7.70;94.60
12901;DHT22;6518;50.930;5.344;2023-04-25T04:36:13;7.60;95.20
12901;DHT22;6518;50.930;5.344;2023-04-25T04:38:41;7.70;94.70
12901;DHT22;6518;50.930;5.344;2023-04-25T04:41:08;7.70;94.40
12901;DHT22;6518;50.930;5.344;2023-04-25T04:43:36;7.70;94.00
12901;DHT22;6518;50.930;5.344;2023-04-25T04:46:05;7.70;93.70
12901;DHT22;6518;50.930;5.344;2023-04-25T04:48:33;7.70;93.40
12901;DHT22;6518;50.930;5.344;2023-04-25T04:51:00;7.80;92.70
12901;DHT22;6518;50.930;5.344;2023-04-25T04:53:27;7.80;92.80
12901;DHT22;6518;50.930;5.344;2023-04-25T04:55:54;7.80;92.20
12901;DHT22;6518;50.930;5.344;2023-04-25T04:58:21;7.80;92.20
12901;DHT22;6518;50.930;5.344;2023-04-25T05:00:48;7.90;91.60
12901;DHT22;6518;50.930;5.344;2023-04-25T05:03:15;7.80;91.20
12901;DHT22;6518;50.930;5.344;2023-04-25T05:05:43;7.90;91.30
12901;DHT22;6518;50.930;5.344;2023-04-25T05:08:11;7.90;90.80
12901;DHT22;6518;50.930;5.344;2023-04-25T05:10:38;7.90;91.00
12901;DHT22;6518;50.930;5.344;2023-04-25T05:13:05;7.90;90.50
12901;DHT22;6518;50.930;5.344;2023-04-25T05:15:32;7.90;90.50
12901;DHT22;6518;50.930;5.344;2023-04-25T05:17:59;7.80;90.60
12901;DHT22;6518;50.930;5.344;2023-04-25T05:20:26;7.80;90.50
12901;DHT22;6518;50.930;5.344;2023-04-25T05:22:55;7.90;90.70
12901;DHT22;6518;50.930;5.344;2023-04-25T05:25:22;7.90;90.70
12901;DHT22;6518;50.930;5.344;2023-04-25T05:27:49;7.90;90.60
12901;DHT22;6518;50.930;5.344;2023-04-25T05:30:16;7.90;90.50
12901;DHT22;6518;50.930;5.344;2023-04-25T05:32:43;8.00;90.60
12901;DHT22;6518;50.930;5.344;2023-04-25T05:35:10;8.00;90.50
12901;DHT22;6518;50.930;5.344;2023-04-25T05:37:37;8.10;90.80
12901;DHT22;6518;50.930;5.344;2023-04-25T05:40:07;8.00;90.70
12901;DHT22;6518;50.930;5.344;2023-04-25T05:42:35;8.10;90.60
12901;DHT22;6518;50.930;5.344;2023-04-25T05:45:02;8.30;91.00
12901;DHT22;6518;50.930;5.344;2023-04-25T05:47:30;8.10;91.00
12901;DHT22;6518;50.930;5.344;2023-04-25T05:49:56;8.10;90.70
12901;DHT22;6518;50.930;5.344;2023-04-25T05:52:23;8.10;90.60
12901;DHT22;6518;50.930;5.344;2023-04-25T05:54:50;8.10;91.00
12901;DHT22;6518;50.930;5.344;2023-04-25T05:57:22;8.10;91.20
12901;DHT22;6518;50.930;5.344;2023-04-25T05:59:50;8.20;91.20
12901;DHT22;6518;50.930;5.344;2023-04-25T06:02:17;8.20;91.20
12901;DHT22;6518;50.930;5.344;2023-04-25T06:04:44;8.20;91.30
12901;DHT22;6518;50.930;5.344;2023-04-25T06:07:11;8.10;90.80
12901;DHT22;6518;50.930;5.344;2023-04-25T06:09:38;8.30;91.50
12901;DHT22;6518;50.930;5.344;2023-04-25T06:12:05;8.10;91.60
12901;DHT22;6518;50.930;5.344;2023-04-25T06:14:34;8.20;91.60
12901;DHT22;6518;50.930;5.344;2023-04-25T06:17:01;8.20;91.50
12901;DHT22;6518;50.930;5.344;2023-04-25T06:19:32;8.20;91.60
12901;DHT22;6518;50.930;5.344;2023-04-25T06:21:58;8.30;91.90
12901;DHT22;6518;50.930;5.344;2023-04-25T06:24:25;8.30;91.40
12901;DHT22;6518;50.930;5.344;2023-04-25T06:26:52;8.40;91.50
12901;DHT22;6518;50.930;5.344;2023-04-25T06:29:19;8.50;91.30
12901;DHT22;6518;50.930;5.344;2023-04-25T06:31:47;8.40;91.20
12901;DHT22;6518;50.930;5.344;2023-04-25T06:34:15;8.30;91.40
12901;DHT22;6518;50.930;5.344;2023-04-25T06:36:43;8.30;91.20
12901;DHT22;6518;50.930;5.344;2023-04-25T06:39:10;8.30;91.60
12901;DHT22;6518;50.930;5.344;2023-04-25T06:41:37;8.30;91.90
12901;DHT22;6518;50.930;5.344;2023-04-25T06:44:04;8.40;91.50
12901;DHT22;6518;50.930;5.344;2023-04-25T06:46:31;8.40;91.10
12901;DHT22;6518;50.930;5.344;2023-04-25T06:48:59;8.50;91.20
12901;DHT22;6518;50.930;5.344;2023-04-25T06:51:26;8.50;91.20
12901;DHT22;6518;50.930;5.344;2023-04-25T06:53:55;8.60;91.10
12901;DHT22;6518;50.930;5.344;2023-04-25T06:56:22;8.60;90.70
12901;DHT22;6518;50.930;5.344;2023-04-25T06:58:49;8.60;90.70
12901;DHT22;6518;50.930;5.344;2023-04-25T07:01:16;8.70;90.60
12901;DHT22;6518;50.930;5.344;2023-04-25T07:03:43;8.70;90.60
12901;DHT22;6518;50.930;5.344;2023-04-25T07:06:12;8.70;90.60
12901;DHT22;6518;50.930;5.344;2023-04-25T07:08:38;8.60;90.70
12901;DHT22;6518;50.930;5.344;2023-04-25T07:11:05;8.60;90.50
12901;DHT22;6518;50.930;5.344;2023-04-25T07:13:32;8.60;90.40
12901;DHT22;6518;50.930;5.344;2023-04-25T07:15:59;8.60;90.70
12901;DHT22;6518;50.930;5.344;2023-04-25T07:18:26;8.60;90.50
12901;DHT22;6518;50.930;5.344;2023-04-25T07:20:53;8.60;90.50
12901;DHT22;6518;50.930;5.344;2023-04-25T07:23:22;8.80;90.80
12901;DHT22;6518;50.930;5.344;2023-04-25T07:25:48;8.90;90.50
12901;DHT22;6518;50.930;5.344;2023-04-25T07:28:15;8.90;90.10
12901;DHT22;6518;50.930;5.344;2023-04-25T07:30:43;9.00;90.00
12901;DHT22;6518;50.930;5.344;2023-04-25T07:33:10;9.20;88.10
12901;DHT22;6518;50.930;5.344;2023-04-25T07:35:37;9.40;87.60
12901;DHT22;6518;50.930;5.344;2023-04-25T07:38:04;8.20;84.30
12901;DHT22;6518;50.930;5.344;2023-04-25T07:40:33;9.30;84.90
12901;DHT22;6518;50.930;5.344;2023-04-25T07:43:01;9.40;84.50
12901;DHT22;6518;50.930;5.344;2023-04-25T07:45:27;9.50;82.40
12901;DHT22;6518;50.930;5.344;2023-04-25T07:47:54;9.60;81.40
12901;DHT22;6518;50.930;5.344;2023-04-25T07:50:21;10.20;82.00
12901;DHT22;6518;50.930;5.344;2023-04-25T07:52:48;9.60;82.30
12901;DHT22;6518;50.930;5.344;2023-04-25T07:55:15;9.60;80.00
12901;DHT22;6518;50.930;5.344;2023-04-25T07:57:44;9.50;78.90
12901;DHT22;6518;50.930;5.344;2023-04-25T08:00:12;9.40;79.70
12901;DHT22;6518;50.930;5.344;2023-04-25T08:02:40;9.40;79.30
12901;DHT22;6518;50.930;5.344;2023-04-25T08:05:07;9.50;80.00
12901;DHT22;6518;50.930;5.344;2023-04-25T08:07:37;9.50;78.70
12901;DHT22;6518;50.930;5.344;2023-04-25T08:10:05;9.60;77.90
12901;DHT22;6518;50.930;5.344;2023-04-25T08:12:32;9.70;76.60
12901;DHT22;6518;50.930;5.344;2023-04-25T08:15:00;9.80;76.50
12901;DHT22;6518;50.930;5.344;2023-04-25T08:17:27;9.80;76.40
12901;DHT22;6518;50.930;5.344;2023-04-25T08:19:54;9.90;75.00
12901;DHT22;6518;50.930;5.344;2023-04-25T08:22:22;9.90;73.10
12901;DHT22;6518;50.930;5.344;2023-04-25T08:24:51;9.90;73.40
12901;DHT22;6518;50.930;5.344;2023-04-25T08:27:18;9.90;73.40
12901;DHT22;6518;50.930;5.344;2023-04-25T08:29:46;9.80;71.60
12901;DHT22;6518;50.930;5.344;2023-04-25T08:32:14;9.80;72.10
12901;DHT22;6518;50.930;5.344;2023-04-25T08:34:41;9.90;71.80
12901;DHT22;6518;50.930;5.344;2023-04-25T08:37:09;9.90;71.80
12901;DHT22;6518;50.930;5.344;2023-04-25T08:39:36;9.80;71.20
12901;DHT22;6518;50.930;5.344;2023-04-25T08:42:06;9.70;72.20
12901;DHT22;6518;50.930;5.344;2023-04-25T08:44:34;9.60;72.60
12901;DHT22;6518;50.930;5.344;2023-04-25T08:47:03;9.60;72.50
12901;DHT22;6518;50.930;5.344;2023-04-25T08:49:32;9.70;71.90
12901;DHT22;6518;50.930;5.344;2023-04-25T08:52:00;9.60;71.80
12901;DHT22;6518;50.930;5.344;2023-04-25T08:54:28;9.60;72.60
12901;DHT22;6518;50.930;5.344;2023-04-25T08:56:57;9.70;71.20
12901;DHT22;6518;50.930;5.344;2023-04-25T08:59:24;9.70;71.70
12901;DHT22;6518;50.930;5.344;2023-04-25T09:01:51;9.70;72.40
12901;DHT22;6518;50.930;5.344;2023-04-25T09:04:18;9.70;72.50
12901;DHT22;6518;50.930;5.344;2023-04-25T09:06:47;9.80;71.90
12901;DHT22;6518;50.930;5.344;2023-04-25T09:09:14;9.80;72.90
12901;DHT22;6518;50.930;5.344;2023-04-25T09:11:41;9.90;72.10
12901;DHT22;6518;50.930;5.344;2023-04-25T09:14:15;10.00;72.00
12901;DHT22;6518;50.930;5.344;2023-04-25T09:17:01;10.10;72.20
12901;DHT22;6518;50.930;5.344;2023-04-25T09:19:32;10.10;72.90
12901;DHT22;6518;50.930;5.344;2023-04-25T09:22:04;10.20;72.30
12901;DHT22;6518;50.930;5.344;2023-04-25T09:24:32;10.20;71.80
12901;DHT22;6518;50.930;5.344;2023-04-25T09:26:59;10.20;72.90
12901;DHT22;6518;50.930;5.344;2023-04-25T09:29:31;10.30;71.50
12901;DHT22;6518;50.930;5.344;2023-04-25T09:32:15;10.30;70.50
12901;DHT22;6518;50.930;5.344;2023-04-25T09:34:44;10.30;71.00
12901;DHT22;6518;50.930;5.344;2023-04-25T09:37:17;10.40;70.10
12901;DHT22;6518;50.930;5.344;2023-04-25T09:39:44;10.40;71.60
12901;DHT22;6518;50.930;5.344;2023-04-25T09:42:11;10.60;69.90
12901;DHT22;6518;50.930;5.344;2023-04-25T09:44:42;10.70;69.70
12901;DHT22;6518;50.930;5.344;2023-04-25T09:47:10;10.80;69.30
12901;DHT22;6518;50.930;5.344;2023-04-25T09:49:40;10.90;68.60
12901;DHT22;6518;50.930;5.344;2023-04-25T09:52:09;11.00;65.30
12901;DHT22;6518;50.930;5.344;2023-04-25T09:54:41;11.00;63.70
12901;DHT22;6518;50.930;5.344;2023-04-25T09:57:11;11.10;63.90
12901;DHT22;6518;50.930;5.344;2023-04-25T09:59:42;11.20;62.30
12901;DHT22;6518;50.930;5.344;2023-04-25T10:02:11;11.30;63.00
12901;DHT22;6518;50.930;5.344;2023-04-25T10:04:38;11.20;64.10
12901;DHT22;6518;50.930;5.344;2023-04-25T10:07:06;11.20;63.40
12901;DHT22;6518;50.930;5.344;2023-04-25T10:09:36;11.20;63.30
12901;DHT22;6518;50.930;5.344;2023-04-25T10:12:07;11.10;62.10
12901;DHT22;6518;50.930;5.344;2023-04-25T10:14:34;11.10;61.70
12901;DHT22;6518;50.930;5.344;2023-04-25T10:17:02;10.90;60.60
12901;DHT22;6518;50.930;5.344;2023-04-25T10:19:29;11.00;62.40
12901;DHT22;6518;50.930;5.344;2023-04-25T10:22:05;10.90;61.90
12901;DHT22;6518;50.930;5.344;2023-04-25T10:24:35;10.90;62.60
12901;DHT22;6518;50.930;5.344;2023-04-25T10:27:02;11.00;62.60
12901;DHT22;6518;50.930;5.344;2023-04-25T10:29:31;11.10;62.50
12901;DHT22;6518;50.930;5.344;2023-04-25T10:31:58;11.10;61.90
12901;DHT22;6518;50.930;5.344;2023-04-25T10:34:38;11.10;63.40
12901;DHT22;6518;50.930;5.344;2023-04-25T10:37:05;10.90;67.10
12901;DHT22;6518;50.930;5.344;2023-04-25T10:39:35;10.80;68.20
12901;DHT22;6518;50.930;5.344;2023-04-25T10:42:02;10.60;68.60
12901;DHT22;6518;50.930;5.344;2023-04-25T10:44:31;10.40;69.50
12901;DHT22;6518;50.930;5.344;2023-04-25T10:46:59;10.30;70.80
12901;DHT22;6518;50.930;5.344;2023-04-25T10:49:32;10.60;70.30
12901;DHT22;6518;50.930;5.344;2023-04-25T10:52:16;10.60;67.70
12901;DHT22;6518;50.930;5.344;2023-04-25T10:54:46;10.70;66.50
12901;DHT22;6518;50.930;5.344;2023-04-25T10:57:36;10.80;63.20
12901;DHT22;6518;50.930;5.344;2023-04-25T11:00:14;10.90;61.70
12901;DHT22;6518;50.930;5.344;2023-04-25T11:02:42;11.00;60.80
12901;DHT22;6518;50.930;5.344;2023-04-25T11:05:11;10.90;61.80
12901;DHT22;6518;50.930;5.344;2023-04-25T11:07:49;11.00;59.30
12901;DHT22;6518;50.930;5.344;2023-04-25T11:10:17;11.00;59.00
12901;DHT22;6518;50.930;5.344;2023-04-25T11:12:45;11.00;58.10
12901;DHT22;6518;50.930;5.344;2023-04-25T11:15:13;10.90;57.50
12901;DHT22;6518;50.930;5.344;2023-04-25T11:17:40;10.90;56.70
12901;DHT22;6518;50.930;5.344;2023-04-25T11:20:09;11.00;57.30
12901;DHT22;6518;50.930;5.344;2023-04-25T11:22:38;11.10;57.10
12901;DHT22;6518;50.930;5.344;2023-04-25T11:25:07;11.10;56.20
12901;DHT22;6518;50.930;5.344;2023-04-25T11:27:37;11.10;55.80
12901;DHT22;6518;50.930;5.344;2023-04-25T11:30:14;11.20;56.40
12901;DHT22;6518;50.930;5.344;2023-04-25T11:32:42;11.30;56.80
12901;DHT22;6518;50.930;5.344;2023-04-25T11:35:09;11.40;57.10
12901;DHT22;6518;50.930;5.344;2023-04-25T11:37:36;11.50;57.20
12901;DHT22;6518;50.930;5.344;2023-04-25T11:40:07;11.50;57.50
12901;DHT22;6518;50.930;5.344;2023-04-25T11:42:37;11.60;57.80
12901;DHT22;6518;50.930;5.344;2023-04-25T11:45:05;11.70;57.30
12901;DHT22;6518;50.930;5.344;2023-04-25T11:47:34;11.70;57.00
12901;DHT22;6518;50.930;5.344;2023-04-25T11:50:02;11.70;57.20
12901;DHT22;6518;50.930;5.344;2023-04-25T11:52:37;11.70;57.00
12901;DHT22;6518;50.930;5.344;2023-04-25T11:55:07;11.80;56.70
12901;DHT22;6518;50.930;5.344;2023-04-25T11:57:34;11.80;57.10
12901;DHT22;6518;50.930;5.344;2023-04-25T12:00:09;12.00;57.00
12901;DHT22;6518;50.930;5.344;2023-04-25T12:02:40;12.10;56.80
12901;DHT22;6518;50.930;5.344;2023-04-25T12:05:08;12.30;55.80
12901;DHT22;6518;50.930;5.344;2023-04-25T12:07:35;12.30;53.90
12901;DHT22;6518;50.930;5.344;2023-04-25T12:10:05;12.40;55.40
12901;DHT22;6518;50.930;5.344;2023-04-25T12:12:33;12.40;55.60
12901;DHT22;6518;50.930;5.344;2023-04-25T12:15:09;12.40;56.50
12901;DHT22;6518;50.930;5.344;2023-04-25T12:17:36;12.30;56.00
12901;DHT22;6518;50.930;5.344;2023-04-25T12:20:11;12.10;56.50
12901;DHT22;6518;50.930;5.344;2023-04-25T12:22:40;11.90;55.50
12901;DHT22;6518;50.930;5.344;2023-04-25T12:25:10;11.80;55.50
12901;DHT22;6518;50.930;5.344;2023-04-25T12:27:37;11.60;58.10
12901;DHT22;6518;50.930;5.344;2023-04-25T12:30:07;11.40;61.30
12901;DHT22;6518;50.930;5.344;2023-04-25T12:32:34;11.20;63.20
12901;DHT22;6518;50.930;5.344;2023-04-25T12:35:01;10.90;63.40
12901;DHT22;6518;50.930;5.344;2023-04-25T12:37:30;10.80;64.10
12901;DHT22;6518;50.930;5.344;2023-04-25T12:39:57;10.60;64.90
12901;DHT22;6518;50.930;5.344;2023-04-25T12:42:23;10.60;65.20
12901;DHT22;6518;50.930;5.344;2023-04-25T12:44:50;10.60;65.10
12901;DHT22;6518;50.930;5.344;2023-04-25T12:47:17;10.80;64.00
12901;DHT22;6518;50.930;5.344;2023-04-25T12:49:44;10.80;64.00
12901;DHT22;6518;50.930;5.344;2023-04-25T12:52:11;10.80;63.80
12901;DHT22;6518;50.930;5.344;2023-04-25T12:54:39;10.90;64.30
12901;DHT22;6518;50.930;5.344;2023-04-25T12:57:06;10.90;63.10
12901;DHT22;6518;50.930;5.344;2023-04-25T12:59:33;11.00;62.70
12901;DHT22;6518;50.930;5.344;2023-04-25T13:02:00;10.90;63.10
12901;DHT22;6518;50.930;5.344;2023-04-25T13:04:27;11.00;62.60
12901;DHT22;6518;50.930;5.344;2023-04-25T13:06:54;11.00;62.70
12901;DHT22;6518;50.930;5.344;2023-04-25T13:09:21;11.10;62.30
12901;DHT22;6518;50.930;5.344;2023-04-25T13:11:49;11.20;61.90
12901;DHT22;6518;50.930;5.344;2023-04-25T13:14:16;11.20;61.20
12901;DHT22;6518;50.930;5.344;2023-04-25T13:16:43;11.20;61.50
12901;DHT22;6518;50.930;5.344;2023-04-25T13:19:10;11.30;60.50
12901;DHT22;6518;50.930;5.344;2023-04-25T13:21:38;11.20;59.40
12901;DHT22;6518;50.930;5.344;2023-04-25T13:24:05;11.10;59.90
12901;DHT22;6518;50.930;5.344;2023-04-25T13:26:32;11.20;59.80
12901;DHT22;6518;50.930;5.344;2023-04-25T13:29:01;11.20;59.80
12901;DHT22;6518;50.930;5.344;2023-04-25T13:31:29;11.20;60.40
12901;DHT22;6518;50.930;5.344;2023-04-25T13:33:56;11.30;63.10
12901;DHT22;6518;50.930;5.344;2023-04-25T13:36:24;11.40;65.40
12901;DHT22;6518;50.930;5.344;2023-04-25T13:38:51;11.30;63.50
12901;DHT22;6518;50.930;5.344;2023-04-25T13:41:18;11.40;65.30
12901;DHT22;6518;50.930;5.344;2023-04-25T13:43:46;11.40;63.70
12901;DHT22;6518;50.930;5.344;2023-04-25T13:46:15;11.50;62.50
12901;DHT22;6518;50.930;5.344;2023-04-25T13:48:42;11.90;61.90
12901;DHT22;6518;50.930;5.344;2023-04-25T13:51:15;11.60;59.60
12901;DHT22;6518;50.930;5.344;2023-04-25T13:53:43;11.80;59.80
12901;DHT22;6518;50.930;5.344;2023-04-25T13:56:11;11.90;58.00
12901;DHT22;6518;50.930;5.344;2023-04-25T13:58:38;11.90;58.00
12901;DHT22;6518;50.930;5.344;2023-04-25T14:01:05;11.90;58.10
12901;DHT22;6518;50.930;5.344;2023-04-25T14:03:33;11.80;58.50
12901;DHT22;6518;50.930;5.344;2023-04-25T14:06:00;11.70;59.30
12901;DHT22;6518;50.930;5.344;2023-04-25T14:08:27;11.70;58.60
12901;DHT22;6518;50.930;5.344;2023-04-25T14:10:54;12.40;58.50
12901;DHT22;6518;50.930;5.344;2023-04-25T14:13:21;11.70;58.30
12901;DHT22;6518;50.930;5.344;2023-04-25T14:15:49;11.70;57.70
12901;DHT22;6518;50.930;5.344;2023-04-25T14:18:17;11.90;58.60
12901;DHT22;6518;50.930;5.344;2023-04-25T14:20:45;11.60;58.70
12901;DHT22;6518;50.930;5.344;2023-04-25T14:23:12;11.60;57.90
12901;DHT22;6518;50.930;5.344;2023-04-25T14:25:39;11.60;58.60
12901;DHT22;6518;50.930;5.344;2023-04-25T14:28:07;11.70;58.90
12901;DHT22;6518;50.930;5.344;2023-04-25T14:30:34;11.70;58.30
12901;DHT22;6518;50.930;5.344;2023-04-25T14:33:01;11.70;57.80
12901;DHT22;6518;50.930;5.344;2023-04-25T14:35:28;11.70;57.70
12901;DHT22;6518;50.930;5.344;2023-04-25T14:37:57;11.70;57.00
12901;DHT22;6518;50.930;5.344;2023-04-25T14:40:24;11.70;57.30
12901;DHT22;6518;50.930;5.344;2023-04-25T14:42:50;11.60;56.10
12901;DHT22;6518;50.930;5.344;2023-04-25T14:45:18;11.70;56.50
12901;DHT22;6518;50.930;5.344;2023-04-25T14:47:45;11.70;56.80
12901;DHT22;6518;50.930;5.344;2023-04-25T14:50:12;11.70;57.00
12901;DHT22;6518;50.930;5.344;2023-04-25T14:52:39;11.70;57.50
12901;DHT22;6518;50.930;5.344;2023-04-25T14:55:08;11.90;57.80
12901;DHT22;6518;50.930;5.344;2023-04-25T14:57:35;11.90;57.20
12901;DHT22;6518;50.930;5.344;2023-04-25T15:00:03;12.00;57.40
12901;DHT22;6518;50.930;5.344;2023-04-25T15:02:34;12.10;57.00
12901;DHT22;6518;50.930;5.344;2023-04-25T15:05:01;12.20;57.20
12901;DHT22;6518;50.930;5.344;2023-04-25T15:07:28;12.20;57.40
12901;DHT22;6518;50.930;5.344;2023-04-25T15:09:55;12.30;57.30
12901;DHT22;6518;50.930;5.344;2023-04-25T15:12:24;12.20;57.00
12901;DHT22;6518;50.930;5.344;2023-04-25T15:14:51;12.10;56.80
12901;DHT22;6518;50.930;5.344;2023-04-25T15:17:18;12.00;55.90
12901;DHT22;6518;50.930;5.344;2023-04-25T15:19:45;11.90;56.20
12901;DHT22;6518;50.930;5.344;2023-04-25T15:22:12;11.80;56.00
12901;DHT22;6518;50.930;5.344;2023-04-25T15:24:39;11.70;56.30
12901;DHT22;6518;50.930;5.344;2023-04-25T15:27:06;11.70;56.60
12901;DHT22;6518;50.930;5.344;2023-04-25T15:29:35;11.90;56.20
12901;DHT22;6518;50.930;5.344;2023-04-25T15:32:02;11.90;56.90
12901;DHT22;6518;50.930;5.344;2023-04-25T15:34:29;11.90;57.20
12901;DHT22;6518;50.930;5.344;2023-04-25T15:36:56;12.00;58.10
12901;DHT22;6518;50.930;5.344;2023-04-25T15:39:23;12.00;58.70
12901;DHT22;6518;50.930;5.344;2023-04-25T15:41:50;11.90;59.20
12901;DHT22;6518;50.930;5.344;2023-04-25T15:44:16;11.90;58.70
12901;DHT22;6518;50.930;5.344;2023-04-25T15:46:45;11.90;57.80
12901;DHT22;6518;50.930;5.344;2023-04-25T15:49:12;11.80;57.40
12901;DHT22;6518;50.930;5.344;2023-04-25T15:51:38;11.70;58.30
12901;DHT22;6518;50.930;5.344;2023-04-25T15:54:05;11.70;58.10
12901;DHT22;6518;50.930;5.344;2023-04-25T15:56:32;11.70;58.00
12901;DHT22;6518;50.930;5.344;2023-04-25T15:58:59;11.70;58.10